Time;durP1;ratioP1;P1;durP2;ratioP2;P2;SDS_P1;SDS_P2;PMS_P1;PMS_P2;Temp;Humidity;BMP_temperature;BMP_pressure;BME280_temperature;BME280_humidity;BME280_pressure;Samples;Min_cycle;Max_cycle;Signal;HPM_P1;HPM_P2
2023/06/04 00:01:11;;;;;;;19.70;8.80;;;;;;;-128.00;-1.00;-1.00;105559;1252;1004459;-79
2023/06/04 00:03:55;;;;;;;16.00;9.30;;;;;;;-128.00;-1.00;-1.00;105492;1252;1059277;-78
2023/06/04 00:06:22;;;;;;;16.90;9.00;;;;;;;-128.00;-1.00;-1.00;105537;1253;1003981;-77
2023/06/04 00:08:48;;;;;;;18.60;9.70;;;;;;;-128.00;-1.00;-1.00;105551;1253;1003379;-80
2023/06/04 00:11:15;;;;;;;19.80;8.00;;;;;;;-128.00;-1.00;-1.00;105544;1253;1004579;-80
2023/06/04 00:13:41;;;;;;;16.70;9.10;;;;;;;-128.00;-1.00;-1.00;105372;1253;1004384;-77
2023/06/04 00:16:08;;;;;;;14.60;7.90;;;;;;;-128.00;-1.00;-1.00;105552;1253;1004062;-78
2023/06/04 00:18:34;;;;;;;13.80;7.60;;;;;;;-128.00;-1.00;-1.00;105368;1254;1003916;-79
2023/06/04 00:21:00;;;;;;;18.80;8.50;;;;;;;-128.00;-1.00;-1.00;105532;1252;1004507;-77
2023/06/04 00:23:27;;;;;;;17.20;8.30;;;;;;;-128.00;-1.00;-1.00;105562;1252;1005102;-77
2023/06/04 00:25:53;;;;;;;15.70;7.70;;;;;;;-128.00;-1.00;-1.00;105529;1252;1004273;-80
2023/06/04 00:28:20;;;;;;;13.30;7.60;;;;;;;-128.00;-1.00;-1.00;105528;1253;1004167;-81
2023/06/04 00:30:47;;;;;;;13.80;7.60;;;;;;;-128.00;-1.00;-1.00;105595;1251;1004460;-77
2023/06/04 00:33:13;;;;;;;13.30;6.40;;;;;;;-128.00;-1.00;-1.00;105614;1251;1005265;-79
2023/06/04 00:35:39;;;;;;;11.90;6.90;;;;;;;-128.00;-1.00;-1.00;105610;1251;1004090;-79
2023/06/04 00:38:06;;;;;;;12.40;6.90;;;;;;;-128.00;-1.00;-1.00;105734;1251;1003343;-77
2023/06/04 00:40:32;;;;;;;13.00;6.80;;;;;;;-128.00;-1.00;-1.00;105805;1251;1004692;-80
2023/06/04 00:42:59;;;;;;;12.60;6.90;;;;;;;-128.00;-1.00;-1.00;105522;1251;1003558;-77
2023/06/04 00:45:25;;;;;;;14.20;8.00;;;;;;;-128.00;-1.00;-1.00;105602;1251;1004703;-79
2023/06/04 00:47:52;;;;;;;16.20;7.50;;;;;;;-128.00;-1.00;-1.00;105562;1251;1003913;-80
2023/06/04 00:50:20;;;;;;;10.50;6.20;;;;;;;-128.00;-1.00;-1.00;105367;1254;1003422;-77
2023/06/04 00:52:48;;;;;;;11.80;7.10;;;;;;;-128.00;-1.00;-1.00;105518;1253;1004559;-77
2023/06/04 00:55:17;;;;;;;15.20;7.60;;;;;;;-128.00;-1.00;-1.00;105548;1253;1004372;-77
2023/06/04 00:57:44;;;;;;;13.70;7.00;;;;;;;-128.00;-1.00;-1.00;105574;1252;1046717;-79
2023/06/04 01:00:12;;;;;;;11.30;6.10;;;;;;;-128.00;-1.00;-1.00;105407;1253;1003642;-77
2023/06/04 01:02:38;;;;;;;11.90;6.90;;;;;;;-128.00;-1.00;-1.00;105410;1254;1004138;-80
2023/06/04 01:05:16;;;;;;;15.90;7.10;;;;;;;-128.00;-1.00;-1.00;105358;1253;1005097;-79
2023/06/04 01:07:46;;;;;;;12.00;5.60;;;;;;;-128.00;-1.00;-1.00;105508;1253;1047120;-78
2023/06/04 01:10:13;;;;;;;12.00;6.30;;;;;;;-128.00;-1.00;-1.00;105493;1256;1046603;-79
2023/06/04 01:12:41;;;;;;;11.90;5.90;;;;;;;-128.00;-1.00;-1.00;105779;1253;1004987;-80
2023/06/04 01:15:08;;;;;;;10.40;5.80;;;;;;;-128.00;-1.00;-1.00;105542;1252;1003777;-78
2023/06/04 01:17:37;;;;;;;9.80;6.30;;;;;;;-128.00;-1.00;-1.00;105487;1254;1004897;-79
2023/06/04 01:20:08;;;;;;;11.90;6.10;;;;;;;-128.00;-1.00;-1.00;105479;1254;1044907;-79
2023/06/04 01:22:56;;;;;;;15.60;7.10;;;;;;;-128.00;-1.00;-1.00;105754;1252;1046885;-77
2023/06/04 01:25:32;;;;;;;14.20;6.60;;;;;;;-128.00;-1.00;-1.00;105715;1254;1061596;-80
2023/06/04 01:27:58;;;;;;;11.70;5.90;;;;;;;-128.00;-1.00;-1.00;105522;1254;1058298;-77
2023/06/04 01:30:34;;;;;;;12.90;6.00;;;;;;;-128.00;-1.00;-1.00;105550;1251;1003485;-77
2023/06/04 01:33:02;;;;;;;13.10;6.60;;;;;;;-128.00;-1.00;-1.00;105740;1251;1044778;-77
2023/06/04 01:35:28;;;;;;;20.10;8.20;;;;;;;-128.00;-1.00;-1.00;105794;1251;1003163;-79
2023/06/04 01:37:55;;;;;;;14.20;7.00;;;;;;;-128.00;-1.00;-1.00;105807;1251;1004395;-77
2023/06/04 01:40:22;;;;;;;13.30;6.70;;;;;;;-128.00;-1.00;-1.00;105794;1251;1003881;-77
2023/06/04 01:42:48;;;;;;;14.30;5.80;;;;;;;-128.00;-1.00;-1.00;105766;1251;1003512;-80
2023/06/04 01:45:15;;;;;;;12.20;6.50;;;;;;;-128.00;-1.00;-1.00;105781;1251;1005180;-77
2023/06/04 01:47:43;;;;;;;10.70;6.10;;;;;;;-128.00;-1.00;-1.00;105649;1251;1003834;-78
2023/06/04 01:50:10;;;;;;;8.70;5.40;;;;;;;-128.00;-1.00;-1.00;105793;1252;1003858;-79
2023/06/04 01:52:36;;;;;;;8.20;5.50;;;;;;;-128.00;-1.00;-1.00;105742;1253;1005947;-79
2023/06/04 01:55:04;;;;;;;9.60;5.80;;;;;;;-128.00;-1.00;-1.00;105659;1252;1004545;-79
2023/06/04 01:57:31;;;;;;;13.30;6.00;;;;;;;-128.00;-1.00;-1.00;105569;1253;1004251;-78
2023/06/04 01:59:57;;;;;;;10.30;5.10;;;;;;;-128.00;-1.00;-1.00;105559;1252;1005095;-78
2023/06/04 02:02:23;;;;;;;13.30;6.90;;;;;;;-128.00;-1.00;-1.00;105529;1253;1005068;-80
2023/06/04 02:04:51;;;;;;;13.80;6.90;;;;;;;-128.00;-1.00;-1.00;105607;1252;1004615;-77
2023/06/04 02:07:20;;;;;;;9.40;4.70;;;;;;;-128.00;-1.00;-1.00;105661;1253;1004504;-77
2023/06/04 02:09:47;;;;;;;8.70;5.00;;;;;;;-128.00;-1.00;-1.00;105543;1253;1045009;-79
2023/06/04 02:12:14;;;;;;;9.50;5.60;;;;;;;-128.00;-1.00;-1.00;105570;1252;1005821;-79
2023/06/04 02:14:45;;;;;;;9.40;4.70;;;;;;;-128.00;-1.00;-1.00;105594;1252;1005222;-79
2023/06/04 02:17:16;;;;;;;12.50;6.00;;;;;;;-128.00;-1.00;-1.00;105770;1253;1057891;-77
2023/06/04 02:19:44;;;;;;;11.10;5.70;;;;;;;-128.00;-1.00;-1.00;105575;1253;1059207;-79
2023/06/04 02:22:11;;;;;;;12.60;4.80;;;;;;;-128.00;-1.00;-1.00;105752;1252;1046556;-78
2023/06/04 02:24:38;;;;;;;10.40;6.40;;;;;;;-128.00;-1.00;-1.00;105756;1252;1004202;-80
2023/06/04 02:27:06;;;;;;;11.20;5.20;;;;;;;-128.00;-1.00;-1.00;105743;1253;1003743;-76
2023/06/04 02:29:32;;;;;;;13.10;5.60;;;;;;;-128.00;-1.00;-1.00;105520;1254;1004770;-78
2023/06/04 02:31:59;;;;;;;10.70;6.10;;;;;;;-128.00;-1.00;-1.00;105792;1251;1003736;-78
2023/06/04 02:34:26;;;;;;;8.90;5.80;;;;;;;-128.00;-1.00;-1.00;105795;1251;1004429;-79
2023/06/04 02:36:52;;;;;;;8.20;5.30;;;;;;;-128.00;-1.00;-1.00;105770;1250;1004323;-77
2023/06/04 02:39:19;;;;;;;11.90;5.80;;;;;;;-128.00;-1.00;-1.00;105579;1250;1004997;-80
2023/06/04 02:41:45;;;;;;;8.00;4.50;;;;;;;-128.00;-1.00;-1.00;105456;1251;1004871;-77
2023/06/04 02:44:12;;;;;;;9.70;5.00;;;;;;;-128.00;-1.00;-1.00;105577;1251;1003411;-77
2023/06/04 02:46:38;;;;;;;9.80;5.10;;;;;;;-128.00;-1.00;-1.00;105758;1255;1004157;-77
2023/06/04 02:49:05;;;;;;;7.80;4.90;;;;;;;-128.00;-1.00;-1.00;105756;1253;1004213;-79
2023/06/04 02:51:32;;;;;;;7.80;5.40;;;;;;;-128.00;-1.00;-1.00;105766;1252;1004084;-77
2023/06/04 02:53:58;;;;;;;6.90;4.00;;;;;;;-128.00;-1.00;-1.00;105554;1252;1004303;-79
2023/06/04 02:56:25;;;;;;;9.10;4.40;;;;;;;-128.00;-1.00;-1.00;105536;1253;1005532;-77
2023/06/04 02:58:53;;;;;;;6.50;4.20;;;;;;;-128.00;-1.00;-1.00;105534;1253;1004742;-79
2023/06/04 03:01:23;;;;;;;8.50;3.80;;;;;;;-128.00;-1.00;-1.00;105647;1253;1003902;-80
2023/06/04 03:03:49;;;;;;;7.20;3.60;;;;;;;-128.00;-1.00;-1.00;105345;1254;1061133;-79
2023/06/04 03:06:16;;;;;;;8.40;4.30;;;;;;;-128.00;-1.00;-1.00;105766;1252;1003909;-79
2023/06/04 03:08:42;;;;;;;5.50;3.60;;;;;;;-128.00;-1.00;-1.00;105637;1253;1004518;-79
2023/06/04 03:11:09;;;;;;;7.90;4.50;;;;;;;-128.00;-1.00;-1.00;105595;1254;1004914;-79
2023/06/04 03:13:36;;;;;;;7.30;4.40;;;;;;;-128.00;-1.00;-1.00;105626;1252;1005599;-79
2023/06/04 03:16:02;;;;;;;7.00;3.70;;;;;;;-128.00;-1.00;-1.00;105704;1253;1004830;-77
2023/06/04 03:18:28;;;;;;;6.10;3.90;;;;;;;-128.00;-1.00;-1.00;105761;1252;1003670;-77
2023/06/04 03:20:55;;;;;;;10.90;5.20;;;;;;;-128.00;-1.00;-1.00;105734;1252;1005352;-77
2023/06/04 03:23:21;;;;;;;7.80;3.90;;;;;;;-128.00;-1.00;-1.00;105720;1253;1003414;-77
2023/06/04 03:25:47;;;;;;;11.40;5.00;;;;;;;-128.00;-1.00;-1.00;105599;1252;1005875;-79
2023/06/04 03:28:14;;;;;;;8.10;4.60;;;;;;;-128.00;-1.00;-1.00;105414;1253;1003630;-79
2023/06/04 03:30:40;;;;;;;11.30;4.10;;;;;;;-128.00;-1.00;-1.00;105543;1251;1004345;-79
2023/06/04 03:33:07;;;;;;;9.10;4.80;;;;;;;-128.00;-1.00;-1.00;105595;1251;1004490;-77
2023/06/04 03:35:34;;;;;;;6.90;4.80;;;;;;;-128.00;-1.00;-1.00;105617;1251;1003915;-77
2023/06/04 03:38:01;;;;;;;7.90;4.90;;;;;;;-128.00;-1.00;-1.00;105794;1251;1004306;-79
2023/06/04 03:40:28;;;;;;;8.10;4.10;;;;;;;-128.00;-1.00;-1.00;105746;1251;1003873;-77
2023/06/04 03:42:54;;;;;;;15.70;6.00;;;;;;;-128.00;-1.00;-1.00;105804;1251;1004976;-79
2023/06/04 03:45:21;;;;;;;10.80;4.70;;;;;;;-128.00;-1.00;-1.00;105764;1251;1004249;-79
2023/06/04 03:47:47;;;;;;;8.70;4.80;;;;;;;-128.00;-1.00;-1.00;105704;1251;1003924;-77
2023/06/04 03:50:13;;;;;;;9.30;4.90;;;;;;;-128.00;-1.00;-1.00;105739;1252;1003686;-80
2023/06/04 03:52:40;;;;;;;6.90;4.20;;;;;;;-128.00;-1.00;-1.00;105379;1254;1004076;-77
2023/06/04 03:55:07;;;;;;;8.60;4.70;;;;;;;-128.00;-1.00;-1.00;105491;1253;1004521;-78
2023/06/04 03:57:33;;;;;;;7.80;4.60;;;;;;;-128.00;-1.00;-1.00;105550;1253;1004107;-77
2023/06/04 04:00:00;;;;;;;7.30;4.60;;;;;;;-128.00;-1.00;-1.00;105516;1252;1004497;-77
2023/06/04 04:02:26;;;;;;;9.60;4.60;;;;;;;-128.00;-1.00;-1.00;105530;1253;1004289;-80
2023/06/04 04:04:54;;;;;;;7.90;4.70;;;;;;;-128.00;-1.00;-1.00;105591;1252;1003422;-77
2023/06/04 04:07:21;;;;;;;8.90;4.40;;;;;;;-128.00;-1.00;-1.00;105528;1252;1004704;-80
2023/06/04 04:09:47;;;;;;;8.70;4.40;;;;;;;-128.00;-1.00;-1.00;105526;1253;1004001;-80
2023/06/04 04:12:13;;;;;;;10.60;4.90;;;;;;;-128.00;-1.00;-1.00;105564;1252;1004170;-80
2023/06/04 04:14:40;;;;;;;6.70;4.10;;;;;;;-128.00;-1.00;-1.00;105531;1253;1006065;-77
2023/06/04 04:17:06;;;;;;;7.70;3.80;;;;;;;-128.00;-1.00;-1.00;105526;1252;1003336;-80
2023/06/04 04:19:33;;;;;;;9.30;5.20;;;;;;;-128.00;-1.00;-1.00;105561;1252;1005178;-77
2023/06/04 04:21:59;;;;;;;8.30;4.50;;;;;;;-128.00;-1.00;-1.00;105537;1253;1005756;-77
2023/06/04 04:24:28;;;;;;;7.80;4.60;;;;;;;-128.00;-1.00;-1.00;105510;1253;1004480;-79
2023/06/04 04:26:54;;;;;;;8.00;3.90;;;;;;;-128.00;-1.00;-1.00;105596;1252;1047320;-80
2023/06/04 04:29:24;;;;;;;8.80;4.90;;;;;;;-128.00;-1.00;-1.00;105535;1253;1005270;-78
2023/06/04 04:31:51;;;;;;;7.10;4.50;;;;;;;-128.00;-1.00;-1.00;105448;1251;1058427;-80
2023/06/04 04:34:21;;;;;;;8.50;4.00;;;;;;;-128.00;-1.00;-1.00;105594;1251;1004199;-78
2023/06/04 04:36:51;;;;;;;8.30;5.30;;;;;;;-128.00;-1.00;-1.00;105603;1251;1045733;-77
2023/06/04 04:39:22;;;;;;;9.80;4.80;;;;;;;-128.00;-1.00;-1.00;105587;1251;1047522;-80
2023/06/04 04:41:48;;;;;;;8.20;4.40;;;;;;;-128.00;-1.00;-1.00;105600;1251;1061439;-80
2023/06/04 04:44:15;;;;;;;7.10;4.20;;;;;;;-128.00;-1.00;-1.00;105594;1251;1003999;-77
2023/06/04 04:46:42;;;;;;;8.60;4.20;;;;;;;-128.00;-1.00;-1.00;105421;1251;1005154;-80
2023/06/04 04:49:08;;;;;;;9.90;5.40;;;;;;;-128.00;-1.00;-1.00;105538;1252;1004260;-80
2023/06/04 04:51:35;;;;;;;9.00;5.00;;;;;;;-128.00;-1.00;-1.00;105551;1252;1004575;-80
2023/06/04 04:54:01;;;;;;;7.40;4.80;;;;;;;-128.00;-1.00;-1.00;105547;1253;1005067;-80
2023/06/04 04:56:28;;;;;;;9.90;5.50;;;;;;;-128.00;-1.00;-1.00;105539;1252;1004073;-80
2023/06/04 04:58:55;;;;;;;8.40;4.60;;;;;;;-128.00;-1.00;-1.00;105554;1252;1004589;-78
2023/06/04 05:01:21;;;;;;;8.90;5.00;;;;;;;-128.00;-1.00;-1.00;105506;1252;1003692;-80
2023/06/04 05:03:48;;;;;;;5.80;4.50;;;;;;;-128.00;-1.00;-1.00;105544;1253;1003404;-77
2023/06/04 05:06:15;;;;;;;8.20;4.30;;;;;;;-128.00;-1.00;-1.00;105317;1252;1005899;-78
2023/06/04 05:08:42;;;;;;;9.80;5.20;;;;;;;-128.00;-1.00;-1.00;105558;1253;1004118;-77
2023/06/04 05:11:09;;;;;;;7.40;4.60;;;;;;;-128.00;-1.00;-1.00;105540;1253;1003978;-80
2023/06/04 05:13:36;;;;;;;77.10;9.80;;;;;;;-128.00;-1.00;-1.00;105529;1252;1005236;-81
2023/06/04 05:16:11;;;;;;;9.10;4.30;;;;;;;-128.00;-1.00;-1.00;105539;1254;1003344;-78
2023/06/04 05:18:40;;;;;;;9.40;5.10;;;;;;;-128.00;-1.00;-1.00;105532;1253;1062332;-80
2023/06/04 05:21:07;;;;;;;;;;;;;;;-128.00;-1.00;-1.00;105547;1253;1058259;-80
2023/06/04 05:23:37;;;;;;;6.60;5.40;;;;;;;-128.00;-1.00;-1.00;105489;1252;1005380;-80
2023/06/04 05:26:04;;;;;;;6.90;4.00;;;;;;;-128.00;-1.00;-1.00;105520;1252;1046138;-78
2023/06/04 05:28:34;;;;;;;7.10;4.20;;;;;;;-128.00;-1.00;-1.00;105547;1253;1004367;-80
2023/06/04 05:31:00;;;;;;;6.80;4.10;;;;;;;-128.00;-1.00;-1.00;105575;1251;1062603;-78
2023/06/04 05:33:27;;;;;;;8.40;4.10;;;;;;;-128.00;-1.00;-1.00;105475;1251;1004177;-81
2023/06/04 05:35:57;;;;;;;8.50;4.70;;;;;;;-128.00;-1.00;-1.00;105539;1251;1004631;-78
2023/06/04 05:38:27;;;;;;;6.60;4.40;;;;;;;-128.00;-1.00;-1.00;105565;1251;1045701;-78
2023/06/04 05:40:54;;;;;;;6.60;4.30;;;;;;;-128.00;-1.00;-1.00;105575;1254;1047277;-78
2023/06/04 05:43:20;;;;;;;8.50;5.10;;;;;;;-128.00;-1.00;-1.00;105524;1253;1005132;-78
2023/06/04 05:45:47;;;;;;;14.10;10.20;;;;;;;-128.00;-1.00;-1.00;105573;1251;1003794;-78
2023/06/04 05:48:13;;;;;;;8.00;4.60;;;;;;;-128.00;-1.00;-1.00;105564;1252;1004594;-81
2023/06/04 05:50:40;;;;;;;9.70;4.50;;;;;;;-128.00;-1.00;-1.00;105543;1253;1004395;-80
2023/06/04 05:53:06;;;;;;;10.70;5.90;;;;;;;-128.00;-1.00;-1.00;105536;1253;1003790;-78
2023/06/04 05:55:33;;;;;;;16.80;4.80;;;;;;;-128.00;-1.00;-1.00;105569;1252;1005170;-78
2023/06/04 05:57:59;;;;;;;6.30;4.40;;;;;;;-128.00;-1.00;-1.00;105597;1252;1005475;-80
2023/06/04 06:00:26;;;;;;;7.90;4.10;;;;;;;-128.00;-1.00;-1.00;105409;1252;1003753;-78
2023/06/04 06:02:53;;;;;;;9.60;4.60;;;;;;;-128.00;-1.00;-1.00;105529;1252;1004928;-81
2023/06/04 06:05:19;;;;;;;10.30;5.00;;;;;;;-128.00;-1.00;-1.00;105398;1254;1005371;-78
2023/06/04 06:07:46;;;;;;;9.20;5.20;;;;;;;-128.00;-1.00;-1.00;105585;1253;1004147;-81
2023/06/04 06:10:12;;;;;;;7.60;5.20;;;;;;;-128.00;-1.00;-1.00;105513;1254;1004807;-77
2023/06/04 06:12:39;;;;;;;13.10;5.80;;;;;;;-128.00;-1.00;-1.00;105547;1252;1004857;-78
2023/06/04 06:15:06;;;;;;;11.00;5.40;;;;;;;-128.00;-1.00;-1.00;105542;1252;1004805;-81
2023/06/04 06:17:33;;;;;;;9.20;4.90;;;;;;;-128.00;-1.00;-1.00;105571;1252;1003765;-78
2023/06/04 06:20:00;;;;;;;10.20;4.50;;;;;;;-128.00;-1.00;-1.00;105578;1252;1004230;-80
2023/06/04 06:22:27;;;;;;;9.90;5.10;;;;;;;-128.00;-1.00;-1.00;105566;1252;1005337;-81
2023/06/04 06:24:53;;;;;;;11.40;4.60;;;;;;;-128.00;-1.00;-1.00;105517;1253;1004992;-78
2023/06/04 06:27:20;;;;;;;10.30;4.30;;;;;;;-128.00;-1.00;-1.00;105587;1252;1004666;-81
2023/06/04 06:29:46;;;;;;;8.20;4.20;;;;;;;-128.00;-1.00;-1.00;105600;1253;1006156;-81
2023/06/04 06:32:12;;;;;;;9.00;4.10;;;;;;;-128.00;-1.00;-1.00;105612;1251;1003720;-80
2023/06/04 06:34:39;;;;;;;8.90;5.40;;;;;;;-128.00;-1.00;-1.00;105483;1250;1004045;-78
2023/06/04 06:37:06;;;;;;;10.40;5.70;;;;;;;-128.00;-1.00;-1.00;105469;1251;1004237;-81
2023/06/04 06:39:32;;;;;;;7.70;4.80;;;;;;;-128.00;-1.00;-1.00;105463;1251;1005152;-78
2023/06/04 06:41:59;;;;;;;9.10;4.20;;;;;;;-128.00;-1.00;-1.00;105645;1251;1004160;-78
2023/06/04 06:44:25;;;;;;;9.10;4.20;;;;;;;-128.00;-1.00;-1.00;105636;1251;1004044;-81
2023/06/04 06:46:51;;;;;;;6.90;3.60;;;;;;;-128.00;-1.00;-1.00;105629;1251;1004151;-78
2023/06/04 06:49:18;;;;;;;6.60;3.30;;;;;;;-128.00;-1.00;-1.00;105542;1252;1003932;-78
2023/06/04 06:51:44;;;;;;;7.20;3.20;;;;;;;-128.00;-1.00;-1.00;105557;1253;1003847;-81
2023/06/04 06:54:10;;;;;;;9.30;3.40;;;;;;;-128.00;-1.00;-1.00;105560;1252;1004285;-78
2023/06/04 06:56:37;;;;;;;9.10;3.90;;;;;;;-128.00;-1.00;-1.00;105386;1253;1004795;-78
2023/06/04 06:59:04;;;;;;;8.40;3.40;;;;;;;-128.00;-1.00;-1.00;105579;1254;1004473;-81
2023/06/04 07:01:32;;;;;;;4.50;2.40;;;;;;;-128.00;-1.00;-1.00;105575;1253;1005603;-81
2023/06/04 07:03:59;;;;;;;15.90;3.00;;;;;;;-128.00;-1.00;-1.00;105602;1252;1004280;-82
2023/06/04 07:06:25;;;;;;;8.00;3.10;;;;;;;-128.00;-1.00;-1.00;105594;1252;1004667;-78
2023/06/04 07:08:53;;;;;;;5.70;3.00;;;;;;;-128.00;-1.00;-1.00;105575;1254;1004960;-78
2023/06/04 07:11:21;;;;;;;5.50;3.10;;;;;;;-128.00;-1.00;-1.00;105580;1253;1004095;-79
2023/06/04 07:13:48;;;;;;;8.40;3.30;;;;;;;-128.00;-1.00;-1.00;105545;1253;1003795;-78
2023/06/04 07:16:14;;;;;;;4.80;3.10;;;;;;;-128.00;-1.00;-1.00;105549;1252;1005099;-79
2023/06/04 07:18:41;;;;;;;5.00;3.00;;;;;;;-128.00;-1.00;-1.00;105629;1252;1003966;-78
2023/06/04 07:21:07;;;;;;;8.20;3.00;;;;;;;-128.00;-1.00;-1.00;105569;1253;1005539;-78
2023/06/04 07:23:33;;;;;;;6.70;3.10;;;;;;;-128.00;-1.00;-1.00;105592;1253;1004121;-81
2023/06/04 07:26:00;;;;;;;7.30;2.90;;;;;;;-128.00;-1.00;-1.00;105588;1253;1003713;-79
2023/06/04 07:28:26;;;;;;;6.30;2.20;;;;;;;-128.00;-1.00;-1.00;105420;1252;1003582;-79
2023/06/04 07:30:52;;;;;;;4.20;2.60;;;;;;;-128.00;-1.00;-1.00;105620;1253;1004902;-79
2023/06/04 07:33:19;;;;;;;5.00;2.70;;;;;;;-128.00;-1.00;-1.00;105670;1251;1004657;-81
2023/06/04 07:35:46;;;;;;;3.60;2.20;;;;;;;-128.00;-1.00;-1.00;105619;1251;1003744;-81
2023/06/04 07:38:12;;;;;;;4.00;2.20;;;;;;;-128.00;-1.00;-1.00;105629;1251;1004134;-78
2023/06/04 07:40:39;;;;;;;4.80;2.80;;;;;;;-128.00;-1.00;-1.00;105518;1251;1004161;-81
2023/06/04 07:43:05;;;;;;;5.30;1.90;;;;;;;-128.00;-1.00;-1.00;105633;1251;1004209;-78
2023/06/04 07:45:32;;;;;;;5.20;2.20;;;;;;;-128.00;-1.00;-1.00;105515;1251;1003440;-79
2023/06/04 07:47:58;;;;;;;6.90;2.50;;;;;;;-128.00;-1.00;-1.00;105649;1253;1005680;-81
2023/06/04 07:50:25;;;;;;;5.20;2.60;;;;;;;-128.00;-1.00;-1.00;105470;1253;1003754;-78
2023/06/04 07:52:51;;;;;;;3.20;1.80;;;;;;;-128.00;-1.00;-1.00;105523;1252;1005038;-82
2023/06/04 07:55:18;;;;;;;2.90;1.70;;;;;;;-128.00;-1.00;-1.00;105485;1253;1005181;-79
2023/06/04 07:57:45;;;;;;;4.70;1.80;;;;;;;-128.00;-1.00;-1.00;105502;1253;1004788;-82
2023/06/04 08:00:12;;;;;;;2.90;1.70;;;;;;;-128.00;-1.00;-1.00;105495;1253;1003862;-82
2023/06/04 08:02:38;;;;;;;3.80;1.90;;;;;;;-128.00;-1.00;-1.00;105480;1252;1003692;-81
2023/06/04 08:05:05;;;;;;;5.00;1.80;;;;;;;-128.00;-1.00;-1.00;105457;1253;1003886;-79
2023/06/04 08:07:32;;;;;;;2.90;1.60;;;;;;;-128.00;-1.00;-1.00;105369;1252;1003608;-82
2023/06/04 08:09:58;;;;;;;4.10;2.30;;;;;;;-128.00;-1.00;-1.00;105467;1253;1004888;-79
2023/06/04 08:12:25;;;;;;;3.40;1.90;;;;;;;-128.00;-1.00;-1.00;105524;1252;1004027;-82
2023/06/04 08:14:55;;;;;;;3.40;1.60;;;;;;;-128.00;-1.00;-1.00;105487;1253;1005776;-79
2023/06/04 08:17:21;;;;;;;6.30;1.60;;;;;;;-128.00;-1.00;-1.00;105474;1253;1046369;-82
2023/06/04 08:19:47;;;;;;;9.00;5.80;;;;;;;-128.00;-1.00;-1.00;105500;1253;1004429;-79
2023/06/04 08:22:14;;;;;;;4.30;2.10;;;;;;;-128.00;-1.00;-1.00;105503;1253;1004209;-79
2023/06/04 08:24:41;;;;;;;7.10;2.60;;;;;;;-128.00;-1.00;-1.00;105566;1253;1004010;-79
2023/06/04 08:27:08;;;;;;;3.80;1.50;;;;;;;-128.00;-1.00;-1.00;105486;1252;1004897;-79
2023/06/04 08:29:35;;;;;;;3.60;1.90;;;;;;;-128.00;-1.00;-1.00;105511;1252;1005100;-82
2023/06/04 08:32:02;;;;;;;11.20;2.20;;;;;;;-128.00;-1.00;-1.00;105629;1251;1004001;-83
2023/06/04 08:34:29;;;;;;;7.40;1.70;;;;;;;-128.00;-1.00;-1.00;105635;1251;1004513;-84
2023/06/04 08:36:56;;;;;;;3.30;1.50;;;;;;;-128.00;-1.00;-1.00;105616;1251;1004256;-83
2023/06/04 08:39:25;;;;;;;3.90;1.70;;;;;;;-128.00;-1.00;-1.00;105601;1251;1003957;-82
2023/06/04 08:41:54;;;;;;;2.20;1.30;;;;;;;-128.00;-1.00;-1.00;105593;1251;1044964;-80
2023/06/04 08:44:20;;;;;;;2.40;1.80;;;;;;;-128.00;-1.00;-1.00;105626;1252;1046649;-79
2023/06/04 08:46:47;;;;;;;4.20;1.50;;;;;;;-128.00;-1.00;-1.00;105626;1251;1005463;-80
2023/06/04 08:49:13;;;;;;;3.10;1.40;;;;;;;-128.00;-1.00;-1.00;105430;1254;1004360;-82
2023/06/04 08:51:40;;;;;;;2.40;1.10;;;;;;;-128.00;-1.00;-1.00;105580;1252;1004902;-79
2023/06/04 08:54:07;;;;;;;2.70;1.30;;;;;;;-128.00;-1.00;-1.00;105392;1254;1005183;-79
2023/06/04 08:56:34;;;;;;;4.70;1.50;;;;;;;-128.00;-1.00;-1.00;105553;1252;1005649;-82
2023/06/04 08:59:06;;;;;;;2.40;1.30;;;;;;;-128.00;-1.00;-1.00;105338;1252;1004741;-83
2023/06/04 09:01:34;;;;;;;2.90;1.60;;;;;;;-128.00;-1.00;-1.00;105405;1253;1059391;-83
2023/06/04 09:04:03;;;;;;;4.80;1.60;;;;;;;-128.00;-1.00;-1.00;105581;1254;1004046;-83
2023/06/04 09:06:29;;;;;;;2.30;1.30;;;;;;;-128.00;-1.00;-1.00;105530;1252;1045088;-82
2023/06/04 09:08:57;;;;;;;3.50;1.30;;;;;;;-128.00;-1.00;-1.00;105596;1253;1004053;-83
2023/06/04 09:11:26;;;;;;;;;;;;;;;-128.00;-1.00;-1.00;105439;1252;1004049;-80
2023/06/04 09:13:52;;;;;;;2.40;1.30;;;;;;;-128.00;-1.00;-1.00;105445;1252;1059847;-82
2023/06/04 09:16:19;;;;;;;3.80;1.70;;;;;;;-128.00;-1.00;-1.00;105522;1252;1003955;-82
2023/06/04 09:18:47;;;;;;;4.60;1.60;;;;;;;-128.00;-1.00;-1.00;105584;1252;1003989;-79
2023/06/04 09:21:13;;;;;;;4.70;1.10;;;;;;;-128.00;-1.00;-1.00;105591;1256;1003917;-79
2023/06/04 09:23:42;;;;;;;10.20;2.50;;;;;;;-128.00;-1.00;-1.00;105572;1253;1003768;-83
2023/06/04 09:26:09;;;;;;;3.40;1.70;;;;;;;-128.00;-1.00;-1.00;105549;1252;1058903;-82
2023/06/04 09:28:39;;;;;;;2.00;1.50;;;;;;;-128.00;-1.00;-1.00;105588;1252;1004518;-79
2023/06/04 09:31:10;;;;;;;3.60;2.00;;;;;;;-128.00;-1.00;-1.00;105600;1251;1045133;-83
2023/06/04 09:33:43;;;;;;;3.60;1.50;;;;;;;-128.00;-1.00;-1.00;105599;1251;1047326;-83
2023/06/04 09:36:10;;;;;;;2.80;1.40;;;;;;;-128.00;-1.00;-1.00;105617;1250;1061900;-80
2023/06/04 09:38:37;;;;;;;2.60;1.70;;;;;;;-128.00;-1.00;-1.00;105511;1251;1004433;-82
2023/06/04 09:41:06;;;;;;;5.60;1.70;;;;;;;-128.00;-1.00;-1.00;105571;1251;1003730;-80
2023/06/04 09:43:32;;;;;;;3.90;1.50;;;;;;;-128.00;-1.00;-1.00;105592;1251;1045044;-80
2023/06/04 09:46:15;;;;;;;4.50;1.50;;;;;;;-128.00;-1.00;-1.00;105621;1251;1004500;-80
2023/06/04 09:48:42;;;;;;;1.90;1.40;;;;;;;-128.00;-1.00;-1.00;105571;1254;1061284;-83
2023/06/04 09:51:15;;;;;;;6.30;1.70;;;;;;;-128.00;-1.00;-1.00;105574;1252;1004323;-82
2023/06/04 09:53:41;;;;;;;1.50;1.30;;;;;;;-128.00;-1.00;-1.00;105543;1254;1059017;-82
2023/06/04 09:56:10;;;;;;;2.20;1.60;;;;;;;-128.00;-1.00;-1.00;105542;1253;1004857;-82
2023/06/04 09:58:37;;;;;;;6.40;1.60;;;;;;;-128.00;-1.00;-1.00;105553;1252;1047272;-80
2023/06/04 10:01:05;;;;;;;4.60;1.80;;;;;;;-128.00;-1.00;-1.00;105533;1253;1004486;-79
2023/06/04 10:03:35;;;;;;;4.50;1.90;;;;;;;-128.00;-1.00;-1.00;105532;1253;1005101;-83
2023/06/04 10:06:03;;;;;;;3.10;1.10;;;;;;;-128.00;-1.00;-1.00;105587;1253;1059307;-83
2023/06/04 10:08:30;;;;;;;;;;;;;;;-128.00;-1.00;-1.00;105534;1252;1003630;-83
2023/06/04 10:11:00;;;;;;;4.40;1.90;;;;;;;-128.00;-1.00;-1.00;105555;1253;1004388;-83
2023/06/04 10:13:28;;;;;;;3.60;1.60;;;;;;;-128.00;-1.00;-1.00;105409;1252;1062270;-80
2023/06/04 10:15:56;;;;;;;3.10;1.30;;;;;;;-128.00;-1.00;-1.00;105564;1252;1004323;-79
2023/06/04 10:18:23;;;;;;;3.10;1.50;;;;;;;-128.00;-1.00;-1.00;105404;1253;1058773;-83
2023/06/04 10:20:50;;;;;;;8.30;2.10;;;;;;;-128.00;-1.00;-1.00;105547;1252;1004180;-83
2023/06/04 10:23:17;;;;;;;11.60;2.60;;;;;;;-128.00;-1.00;-1.00;105529;1254;1004476;-83
2023/06/04 10:25:44;;;;;;;4.40;1.40;;;;;;;-128.00;-1.00;-1.00;105502;1254;1003874;-80
2023/06/04 10:28:10;;;;;;;2.10;1.30;;;;;;;-128.00;-1.00;-1.00;105470;1254;1003744;-84
2023/06/04 10:30:37;;;;;;;3.20;1.80;;;;;;;-128.00;-1.00;-1.00;105319;1251;1003821;-80
2023/06/04 10:33:03;;;;;;;2.00;1.30;;;;;;;-128.00;-1.00;-1.00;105484;1251;1003579;-83
2023/06/04 10:35:33;;;;;;;3.80;2.00;;;;;;;-128.00;-1.00;-1.00;105656;1251;1005148;-83
2023/06/04 10:38:10;;;;;;;2.30;1.40;;;;;;;-128.00;-1.00;-1.00;105636;1251;1061831;-83
2023/06/04 10:40:37;;;;;;;6.50;1.90;;;;;;;-128.00;-1.00;-1.00;105593;1251;1059548;-80
2023/06/04 10:43:10;;;;;;;2.40;1.70;;;;;;;-128.00;-1.00;-1.00;105642;1251;1005106;-80
2023/06/04 10:45:36;;;;;;;6.00;1.90;;;;;;;-128.00;-1.00;-1.00;105618;1251;1044841;-79
2023/06/04 10:48:09;;;;;;;6.60;1.70;;;;;;;-128.00;-1.00;-1.00;105617;1251;1004259;-80
2023/06/04 10:50:50;;;;;;;2.00;1.50;;;;;;;-128.00;-1.00;-1.00;105560;1254;1061269;-80
2023/06/04 10:53:20;;;;;;;3.10;1.70;;;;;;;-128.00;-1.00;-1.00;105409;1254;1057707;-80
2023/06/04 10:55:47;;;;;;;6.00;1.80;;;;;;;-128.00;-1.00;-1.00;105410;1253;1059153;-83
2023/06/04 10:58:13;;;;;;;5.20;1.80;;;;;;;-128.00;-1.00;-1.00;105554;1252;1004377;-79
2023/06/04 11:00:41;;;;;;;2.60;1.80;;;;;;;-128.00;-1.00;-1.00;105452;1253;1003904;-80
2023/06/04 11:03:10;;;;;;;7.30;1.50;;;;;;;-128.00;-1.00;-1.00;105601;1253;1004554;-82
2023/06/04 11:05:44;;;;;;;2.00;1.30;;;;;;;-128.00;-1.00;-1.00;105437;1253;1058315;-83
2023/06/04 11:08:11;;;;;;;5.00;1.80;;;;;;;-128.00;-1.00;-1.00;105593;1253;1060141;-80
2023/06/04 11:10:40;;;;;;;4.00;1.50;;;;;;;-128.00;-1.00;-1.00;105449;1254;1005070;-83
2023/06/04 11:13:07;;;;;;;2.30;1.50;;;;;;;-128.00;-1.00;-1.00;105579;1253;1047385;-83
2023/06/04 11:15:40;;;;;;;2.70;1.30;;;;;;;-128.00;-1.00;-1.00;105557;1255;1004417;-83
2023/06/04 11:18:06;;;;;;;4.60;1.80;;;;;;;-128.00;-1.00;-1.00;105587;1254;1058007;-80